Time;durP1;ratioP1;P1;durP2;ratioP2;P2;SDS_P1;SDS_P2;PMS_P1;PMS_P2;Temp;Humidity;BMP_temperature;BMP_pressure;BME280_temperature;BME280_humidity;BME280_pressure;Samples;Min_cycle;Max_cycle;Signal;HPM_P1;HPM_P2
2022/03/05 00:02:23;;;;;;;26.77;12.13;;;;;;;1.05;72.68;102175.34;5065760;28;20021;-60
2022/03/05 00:04:49;;;;;;;26.85;12.20;;;;;;;0.98;72.97;102169.13;5067977;28;20044;-60
2022/03/05 00:07:15;;;;;;;25.63;12.07;;;;;;;1.00;73.00;102180.41;5065932;28;20095;-61
2022/03/05 00:09:40;;;;;;;24.35;11.85;;;;;;;0.98;72.98;102174.31;5068279;28;20021;-60
2022/03/05 00:12:06;;;;;;;26.42;13.43;;;;;;;0.96;73.59;102175.13;5067375;28;20233;-59
2022/03/05 00:14:31;;;;;;;22.70;11.95;;;;;;;0.90;73.35;102172.34;5048237;28;20123;-61
2022/03/05 00:16:57;;;;;;;28.55;13.23;;;;;;;0.84;73.56;102167.88;5045899;28;20476;-61
2022/03/05 00:19:22;;;;;;;29.08;12.23;;;;;;;0.73;73.94;102176.19;5047553;28;20021;-60
2022/03/05 00:21:47;;;;;;;26.75;12.02;;;;;;;0.79;74.33;102169.44;5047527;28;20017;-60
2022/03/05 00:24:13;;;;;;;27.20;12.30;;;;;;;0.73;74.32;102173.59;5046982;28;20047;-62
2022/03/05 00:26:38;;;;;;;36.95;14.20;;;;;;;0.72;74.45;102171.00;5047927;28;20510;-61
2022/03/05 00:29:04;;;;;;;27.48;12.60;;;;;;;0.67;74.72;102181.25;5047365;28;20032;-61
2022/03/05 00:31:29;;;;;;;28.25;12.77;;;;;;;0.66;74.71;102179.47;5047269;28;20115;-63
2022/03/05 00:33:55;;;;;;;29.17;13.90;;;;;;;0.61;75.16;102183.66;5047472;28;20124;-60
2022/03/05 00:36:20;;;;;;;27.92;12.77;;;;;;;0.57;76.34;102184.41;5048663;28;20032;-61
2022/03/05 00:38:45;;;;;;;29.02;13.32;;;;;;;0.59;76.59;102181.00;5066385;28;20044;-61
2022/03/05 00:41:11;;;;;;;30.13;13.05;;;;;;;0.59;76.90;102177.53;5066166;28;20230;-60
2022/03/05 00:43:37;;;;;;;29.35;14.05;;;;;;;0.59;76.58;102180.13;5067263;28;20028;-65
2022/03/05 00:46:02;;;;;;;33.20;15.13;;;;;;;0.57;77.03;102187.00;5067275;28;20048;-59
2022/03/05 00:48:27;;;;;;;31.92;14.80;;;;;;;0.56;76.83;102185.22;5062863;28;20025;-59
2022/03/05 00:50:53;;;;;;;29.23;12.88;;;;;;;0.54;76.81;102194.69;5047570;28;20080;-60
2022/03/05 00:53:18;;;;;;;26.98;13.23;;;;;;;0.49;77.02;102190.22;5045479;28;20037;-60
2022/03/05 00:55:44;;;;;;;32.63;15.65;;;;;;;0.46;77.49;102191.84;5047497;28;20108;-60
2022/03/05 00:58:09;;;;;;;31.00;14.65;;;;;;;0.46;77.13;102189.25;5045691;28;20398;-60
2022/03/05 01:00:35;;;;;;;38.05;14.60;;;;;;;0.38;77.30;102189.03;5051369;28;20032;-60
2022/03/05 01:03:01;;;;;;;38.00;15.00;;;;;;;0.37;77.27;102190.72;5066984;28;20363;-60
2022/03/05 01:05:26;;;;;;;30.42;14.23;;;;;;;0.36;77.40;102183.78;5065860;28;20033;-60
2022/03/05 01:07:51;;;;;;;30.60;14.35;;;;;;;0.35;77.39;102194.13;5065097;28;20061;-59
2022/03/05 01:10:17;;;;;;;31.08;14.70;;;;;;;0.28;77.68;102197.34;5066312;28;20062;-60
2022/03/05 01:12:42;;;;;;;31.55;14.85;;;;;;;0.17;78.30;102200.50;5060991;28;20037;-61
2022/03/05 01:15:08;;;;;;;38.00;15.45;;;;;;;0.15;77.99;102199.56;5066569;28;20039;-61
2022/03/05 01:17:33;;;;;;;32.38;14.50;;;;;;;0.20;78.07;102208.38;5065953;28;20474;-59
2022/03/05 01:19:59;;;;;;;31.65;13.65;;;;;;;0.11;78.19;102202.91;5066298;28;20037;-60
2022/03/05 01:22:24;;;;;;;36.08;15.00;;;;;;;0.11;78.19;102205.47;5065763;28;20055;-59
2022/03/05 01:24:50;;;;;;;31.95;14.90;;;;;;;0.06;78.24;102204.47;5065556;28;20486;-57
2022/03/05 01:27:15;;;;;;;26.60;13.05;;;;;;;0.03;77.96;102205.22;5066245;28;20034;-59
2022/03/05 01:29:40;;;;;;;36.22;14.63;;;;;;;-0.05;78.61;102204.13;5065580;28;20107;-60
2022/03/05 01:32:06;;;;;;;34.80;14.18;;;;;;;-0.14;78.84;102213.38;5066521;28;20130;-60
2022/03/05 01:34:31;;;;;;;32.13;13.38;;;;;;;-0.12;79.12;102203.03;5066527;28;20032;-60
2022/03/05 01:36:57;;;;;;;33.45;14.20;;;;;;;-0.14;79.30;102202.13;5064582;28;20032;-59
2022/03/05 01:39:22;;;;;;;34.13;14.85;;;;;;;-0.22;79.41;102217.41;5047213;28;20033;-61
2022/03/05 01:41:49;;;;;;;37.80;15.82;;;;;;;-0.30;79.56;102201.59;5044353;28;20108;-59
2022/03/05 01:44:15;;;;;;;37.35;14.52;;;;;;;-0.34;79.89;102197.16;5045700;28;20029;-60
2022/03/05 01:46:40;;;;;;;32.90;13.98;;;;;;;-0.34;79.92;102204.91;5045828;28;20040;-61
2022/03/05 01:49:08;;;;;;;34.60;15.88;;;;;;;-0.38;79.96;102203.06;5046548;28;20039;-61
2022/03/05 01:51:35;;;;;;;31.20;14.02;;;;;;;-0.37;80.05;102199.63;5044809;28;20033;-60
2022/03/05 01:54:00;;;;;;;36.97;15.05;;;;;;;-0.39;80.11;102203.91;5045158;28;20092;-60
2022/03/05 01:56:27;;;;;;;34.78;15.23;;;;;;;-0.38;80.08;102203.06;5045613;28;21320;-59
2022/03/05 01:58:53;;;;;;;30.48;14.55;;;;;;;-0.47;80.19;102201.03;5046140;28;20064;-61
2022/03/05 02:01:22;;;;;;;34.00;15.13;;;;;;;-0.48;80.11;102198.41;5082742;22;20080;-60
2022/03/05 02:03:47;;;;;;;36.35;15.20;;;;;;;-0.54;80.15;102204.25;5045006;28;20086;-61
2022/03/05 02:06:13;;;;;;;38.67;15.05;;;;;;;-0.56;80.53;102198.13;5045351;28;20029;-59
2022/03/05 02:08:38;;;;;;;35.08;14.88;;;;;;;-0.56;80.43;102200.72;5044364;28;20032;-61
2022/03/05 02:11:04;;;;;;;35.13;15.10;;;;;;;-0.57;80.49;102196.38;5045090;28;20432;-61
2022/03/05 02:13:29;;;;;;;31.25;13.05;;;;;;;-0.60;80.53;102201.44;5044588;28;20568;-60
2022/03/05 02:15:56;;;;;;;32.60;13.90;;;;;;;-0.64;80.49;102196.16;5044853;28;20704;-60
2022/03/05 02:18:22;;;;;;;33.25;14.82;;;;;;;-0.67;80.56;102196.06;5057836;28;20085;-59
2022/03/05 02:20:48;;;;;;;30.55;13.43;;;;;;;-0.69;80.70;102191.66;5066206;28;20032;-63
2022/03/05 02:23:13;;;;;;;33.33;14.32;;;;;;;-0.75;80.77;102196.63;5064405;28;20013;-60
2022/03/05 02:25:50;;;;;;;34.58;13.32;;;;;;;-0.72;80.94;102195.00;5065847;28;20033;-60
2022/03/05 02:28:15;;;;;;;32.97;13.95;;;;;;;-0.75;81.03;102187.16;5065669;28;20136;-60
2022/03/05 02:30:40;;;;;;;33.13;15.05;;;;;;;-0.82;81.08;102186.03;5065144;28;20356;-60
2022/03/05 02:33:05;;;;;;;35.30;14.27;;;;;;;-0.91;81.42;102190.88;5058652;28;20067;-59
2022/03/05 02:35:31;;;;;;;32.05;14.15;;;;;;;-0.98;81.74;102183.72;5045846;28;20107;-60
2022/03/05 02:37:56;;;;;;;35.58;15.07;;;;;;;-0.98;81.77;102186.31;5050116;28;20195;-60
2022/03/05 02:40:21;;;;;;;43.40;15.25;;;;;;;-1.04;82.05;102181.81;5052522;28;20088;-60
2022/03/05 02:42:47;;;;;;;34.20;14.90;;;;;;;-1.12;82.16;102189.28;5045184;28;20029;-61
2022/03/05 02:45:12;;;;;;;37.55;14.57;;;;;;;-1.11;82.50;102188.47;5045459;28;20027;-59
2022/03/05 02:47:38;;;;;;;41.60;15.98;;;;;;;-1.12;82.27;102186.69;5045786;28;20028;-60
2022/03/05 02:50:03;;;;;;;45.08;16.38;;;;;;;-1.18;82.28;102184.78;5064867;28;20037;-60
2022/03/05 02:52:29;;;;;;;40.58;15.30;;;;;;;-1.23;82.48;102182.84;5062952;28;20031;-60
2022/03/05 02:54:54;;;;;;;37.67;15.95;;;;;;;-1.27;82.72;102181.84;5065486;28;20392;-60
2022/03/05 02:57:19;;;;;;;34.85;15.95;;;;;;;-1.31;82.63;102183.44;5065223;28;20469;-59
2022/03/05 02:59:45;;;;;;;32.08;15.18;;;;;;;-1.29;82.50;102184.38;5064549;28;20044;-60
2022/03/05 03:02:10;;;;;;;37.83;15.88;;;;;;;-1.27;82.46;102182.72;5065066;28;20052;-60
2022/03/05 03:04:35;;;;;;;36.45;14.65;;;;;;;-1.28;82.40;102182.69;5064942;28;20017;-60
2022/03/05 03:07:01;;;;;;;41.30;15.80;;;;;;;-1.29;82.34;102181.78;5068217;28;20021;-60
2022/03/05 03:09:28;;;;;;;40.40;15.07;;;;;;;-1.36;82.77;102173.75;5069296;28;20032;-59
2022/03/05 03:11:53;;;;;;;34.42;15.05;;;;;;;-1.40;82.91;102170.16;5057399;28;20393;-60
2022/03/05 03:14:19;;;;;;;48.63;15.77;;;;;;;-1.35;82.98;102171.25;5029111;28;20032;-59
2022/03/05 03:16:44;;;;;;;32.50;15.05;;;;;;;-1.31;82.88;102170.53;5028562;28;20048;-60
2022/03/05 03:19:09;;;;;;;37.70;15.75;;;;;;;-1.30;82.88;102172.28;5028978;28;20022;-59
2022/03/05 03:21:35;;;;;;;39.67;15.80;;;;;;;-1.31;82.82;102178.28;5028706;28;20053;-58
2022/03/05 03:24:00;;;;;;;44.45;16.15;;;;;;;-1.35;82.98;102171.25;5041031;28;20029;-61
2022/03/05 03:26:25;;;;;;;40.15;15.90;;;;;;;-1.33;83.09;102172.16;5068552;28;20059;-60
2022/03/05 03:28:50;;;;;;;37.92;15.60;;;;;;;-1.41;83.21;102168.41;5068140;28;20071;-60
2022/03/05 03:31:16;;;;;;;39.90;16.77;;;;;;;-1.35;83.33;102167.75;5068863;28;20137;-59
2022/03/05 03:33:41;;;;;;;38.90;16.65;;;;;;;-1.36;83.47;102171.19;5069446;28;20046;-60
2022/03/05 03:36:06;;;;;;;39.60;15.40;;;;;;;-1.36;83.32;102172.03;5060290;28;20484;-63
2022/03/05 03:38:32;;;;;;;42.83;16.52;;;;;;;-1.36;83.20;102173.75;5047756;28;20226;-59
2022/03/05 03:40:57;;;;;;;41.00;16.58;;;;;;;-1.41;83.40;102168.41;5047839;28;20060;-60
2022/03/05 03:43:22;;;;;;;36.72;13.82;;;;;;;-1.47;83.22;102163.00;5048558;28;20108;-60
2022/03/05 03:45:48;;;;;;;39.22;16.50;;;;;;;-1.45;83.34;102157.06;5048854;28;20061;-60
2022/03/05 03:48:13;;;;;;;42.50;16.60;;;;;;;-1.42;83.61;102159.78;5055854;28;20185;-60
2022/03/05 03:50:38;;;;;;;36.28;15.80;;;;;;;-1.42;83.57;102158.88;5067541;28;20112;-60
2022/03/05 03:53:04;;;;;;;42.08;16.13;;;;;;;-1.49;83.58;102159.47;5067578;28;20028;-61
2022/03/05 03:55:29;;;;;;;43.08;16.65;;;;;;;-1.50;83.51;102165.47;5068408;28;20029;-61
2022/03/05 03:57:54;;;;;;;46.15;17.83;;;;;;;-1.49;83.66;102164.66;5067343;28;20072;-58
2022/03/05 04:00:20;;;;;;;35.58;14.57;;;;;;;-1.55;83.55;102170.47;5068065;28;20089;-59
2022/03/05 04:02:45;;;;;;;43.97;16.20;;;;;;;-1.66;83.68;102173.53;5068350;28;20514;-60
2022/03/05 04:05:12;;;;;;;41.05;16.20;;;;;;;-1.68;83.88;102127.78;5067857;28;20031;-61
2022/03/05 04:10:21;;;;;;;39.85;17.00;;;;;;;-1.75;83.96;102123.19;5068021;28;20121;-59
2022/03/05 04:12:47;;;;;;;40.58;16.63;;;;;;;-1.74;83.83;102127.53;5051188;28;20108;-59
2022/03/05 04:15:12;;;;;;;45.75;16.73;;;;;;;-1.80;83.95;102129.06;5047910;28;20036;-62
2022/03/05 04:17:38;;;;;;;40.17;16.17;;;;;;;-1.87;84.06;102129.66;5046773;28;20036;-62
2022/03/05 04:20:05;;;;;;;54.63;16.60;;;;;;;-1.88;84.15;102133.06;5048363;28;20036;-61
2022/03/05 04:22:31;;;;;;;37.88;15.82;;;;;;;-1.94;84.48;102140.56;5047150;28;20025;-59
2022/03/05 04:24:56;;;;;;;44.45;16.17;;;;;;;-1.93;83.87;102126.81;5062555;28;20047;-60
2022/03/05 04:27:21;;;;;;;44.53;16.98;;;;;;;-1.98;83.99;102130.94;5054507;28;20032;-60
2022/03/05 04:29:46;;;;;;;40.15;15.52;;;;;;;-2.10;84.48;102132.22;5050308;28;20025;-60
2022/03/05 04:32:12;;;;;;;45.20;16.98;;;;;;;-2.16;85.03;102134.56;5027774;28;20038;-58
2022/03/05 04:34:37;;;;;;;39.83;14.90;;;;;;;-2.06;84.29;102141.84;5026554;28;20037;-59
2022/03/05 04:37:03;;;;;;;37.97;14.90;;;;;;;-2.09;84.19;102141.72;5027134;28;20374;-58
2022/03/05 04:39:28;;;;;;;37.95;14.98;;;;;;;-2.08;84.10;102142.63;5027540;28;20917;-61
2022/03/05 04:41:53;;;;;;;38.58;15.15;;;;;;;-2.13;84.02;102134.69;5032504;28;20067;-60
2022/03/05 04:44:19;;;;;;;37.38;14.65;;;;;;;-2.14;84.20;102132.91;5047381;28;20025;-60
2022/03/05 04:46:44;;;;;;;35.55;15.40;;;;;;;-2.19;84.20;102134.44;5046751;28;20048;-62
2022/03/05 04:49:10;;;;;;;45.05;16.70;;;;;;;-2.21;84.38;102128.31;5047911;28;20063;-60
2022/03/05 04:51:35;;;;;;;41.95;16.20;;;;;;;-2.22;84.50;102124.00;5046628;28;20033;-61
2022/03/05 04:54:00;;;;;;;44.33;16.48;;;;;;;-2.25;84.85;102131.59;5048102;28;20029;-62
2022/03/05 04:56:26;;;;;;;45.05;16.00;;;;;;;-2.29;84.91;102133.16;5047251;28;20033;-60
2022/03/05 04:58:51;;;;;;;49.45;18.25;;;;;;;-2.32;84.80;102133.94;5046691;28;20025;-60
2022/03/05 05:01:18;;;;;;;43.55;17.20;;;;;;;-2.39;85.05;102131.94;5046654;28;20543;-60
2022/03/05 05:03:44;;;;;;;42.47;15.45;;;;;;;-2.43;85.10;102140.38;5047564;28;20041;-59
2022/03/05 05:06:09;;;;;;;45.05;17.55;;;;;;;-2.46;85.83;102142.81;5047324;28;20093;-60
2022/03/05 05:08:34;;;;;;;46.30;16.00;;;;;;;-2.47;85.66;102143.66;5063105;28;20021;-60
2022/03/05 05:11:00;;;;;;;45.00;17.17;;;;;;;-2.46;85.70;102140.25;5026301;28;20025;-59
2022/03/05 05:13:26;;;;;;;37.95;15.48;;;;;;;-2.47;85.45;102141.06;5042968;28;20497;-59
2022/03/05 05:15:51;;;;;;;43.33;16.02;;;;;;;-2.44;85.23;102154.13;5047338;28;20068;-60
2022/03/05 05:18:16;;;;;;;41.67;15.32;;;;;;;-2.55;85.21;102146.81;5050447;28;20479;-58
2022/03/05 05:20:42;;;;;;;39.42;14.73;;;;;;;-2.59;84.98;102138.88;5055463;28;20395;-60
2022/03/05 05:23:07;;;;;;;36.58;15.55;;;;;;;-2.55;85.48;102130.44;5045948;28;20029;-62
2022/03/05 05:25:32;;;;;;;43.00;16.45;;;;;;;-2.55;85.38;102145.91;5046802;28;20044;-60
2022/03/05 05:27:58;;;;;;;44.90;16.30;;;;;;;-2.61;85.18;102149.13;5046033;28;20039;-58
2022/03/05 05:30:23;;;;;;;51.55;17.25;;;;;;;-2.65;85.38;102160.13;5045439;28;20029;-61
2022/03/05 05:32:49;;;;;;;45.00;16.52;;;;;;;-2.69;85.25;102159.13;5046551;28;20364;-60
2022/03/05 05:35:15;;;;;;;49.22;17.95;;;;;;;-2.71;85.99;102158.16;5046505;28;20033;-61
2022/03/05 05:37:40;;;;;;;44.20;14.60;;;;;;;-2.70;85.83;102165.09;5046035;28;20071;-59
2022/03/05 05:40:06;;;;;;;42.70;16.08;;;;;;;-2.66;85.54;102173.84;5046380;28;20032;-63
2022/03/05 05:42:32;;;;;;;42.35;16.88;;;;;;;-2.66;85.77;102168.69;5046223;28;20071;-58
2022/03/05 05:44:57;;;;;;;46.40;16.77;;;;;;;-2.62;85.53;102168.00;5046003;28;20040;-58
2022/03/05 05:47:22;;;;;;;40.42;16.08;;;;;;;-2.66;85.43;102168.69;5045683;28;20029;-59
2022/03/05 05:49:48;;;;;;;43.08;17.02;;;;;;;-2.70;85.52;102172.84;5046763;28;20036;-60
2022/03/05 05:52:13;;;;;;;44.30;16.23;;;;;;;-2.74;86.02;102173.50;5044406;28;20021;-57
2022/03/05 05:54:38;;;;;;;41.88;15.90;;;;;;;-2.76;86.09;102171.69;5045512;28;20033;-61
2022/03/05 05:57:04;;;;;;;45.35;16.98;;;;;;;-2.74;85.96;102175.22;5046475;28;20237;-61
2022/03/05 05:59:29;;;;;;;48.50;17.27;;;;;;;-2.71;85.84;102176.22;5046117;28;20111;-60
2022/03/05 06:01:54;;;;;;;43.75;16.63;;;;;;;-2.72;85.99;102179.63;5048221;28;20070;-60
2022/03/05 06:04:20;;;;;;;49.92;16.90;;;;;;;-2.76;85.97;102177.75;5046668;28;20031;-59
2022/03/05 06:06:45;;;;;;;42.30;17.52;;;;;;;-2.75;85.86;102176.91;5045396;28;20095;-60
2022/03/05 06:09:11;;;;;;;50.35;18.73;;;;;;;-2.79;86.26;102177.59;5040152;28;20076;-61
2022/03/05 06:11:36;;;;;;;47.90;16.73;;;;;;;-2.80;86.29;102181.00;5045546;28;20016;-62
2022/03/05 06:14:01;;;;;;;51.47;17.95;;;;;;;-2.77;85.87;102182.84;5045155;28;20475;-59
2022/03/05 06:16:27;;;;;;;50.08;17.50;;;;;;;-2.84;86.46;102185.16;5040474;28;20079;-58
2022/03/05 06:18:52;;;;;;;42.63;16.45;;;;;;;-2.80;86.24;102186.19;5045903;28;20017;-58
2022/03/05 06:21:17;;;;;;;52.97;19.08;;;;;;;-2.83;86.05;102184.31;5041511;28;20577;-60
2022/03/05 06:23:43;;;;;;;46.40;17.10;;;;;;;-2.84;86.41;102187.72;5041756;28;20036;-59
2022/03/05 06:26:08;;;;;;;51.00;17.40;;;;;;;-2.85;86.33;102185.97;5044924;28;20043;-60
2022/03/05 06:28:34;;;;;;;47.92;17.60;;;;;;;-2.83;86.33;102194.63;5048363;28;20729;-59
2022/03/05 06:31:00;;;;;;;50.50;18.42;;;;;;;-2.91;86.39;102193.44;5044824;28;20029;-60
2022/03/05 06:33:25;;;;;;;51.30;17.65;;;;;;;-2.93;86.58;102195.94;5045705;28;20475;-59
2022/03/05 06:35:51;;;;;;;52.67;17.08;;;;;;;-2.87;86.55;102189.28;5045688;28;20036;-60
2022/03/05 06:38:17;;;;;;;52.08;18.08;;;;;;;-2.86;86.76;102194.50;5053512;28;20434;-58
2022/03/05 06:40:42;;;;;;;46.38;18.10;;;;;;;-2.80;86.47;102186.19;5064577;28;20028;-60
2022/03/05 06:43:08;;;;;;;47.72;17.98;;;;;;;-2.79;86.05;102190.50;5064579;28;20074;-61
2022/03/05 06:45:34;;;;;;;57.17;18.50;;;;;;;-2.84;86.19;102197.16;5064336;28;20028;-60
2022/03/05 06:47:59;;;;;;;45.03;18.02;;;;;;;-2.85;86.24;102198.88;5065407;28;20110;-62
2022/03/05 06:50:25;;;;;;;51.10;18.10;;;;;;;-2.84;86.55;102199.72;5060847;28;20032;-59
2022/03/05 06:52:50;;;;;;;57.13;20.08;;;;;;;-2.79;86.29;102199.09;5024600;28;20030;-60
2022/03/05 06:55:16;;;;;;;51.58;17.90;;;;;;;-2.72;86.60;102189.06;5023191;28;20031;-59
2022/03/05 06:57:43;;;;;;;49.33;17.52;;;;;;;-2.73;86.47;102202.78;5039284;28;20029;-62
2022/03/05 07:00:10;;;;;;;46.58;18.60;;;;;;;-2.73;86.48;102197.63;5044823;28;20083;-61
2022/03/05 07:02:35;;;;;;;58.28;19.42;;;;;;;-2.69;86.73;102200.41;5055827;28;20052;-60
2022/03/05 07:05:01;;;;;;;48.67;17.52;;;;;;;-2.65;86.56;102211.72;5063950;28;20048;-60
2022/03/05 07:07:26;;;;;;;42.55;16.20;;;;;;;-2.59;86.65;102201.66;5046433;28;20112;-57
2022/03/05 07:09:51;;;;;;;56.00;18.35;;;;;;;-2.54;86.37;102209.63;5045516;28;20043;-60
2022/03/05 07:12:17;;;;;;;52.20;19.00;;;;;;;-2.49;86.43;102212.41;5046382;28;20024;-58
2022/03/05 07:14:44;;;;;;;50.20;17.58;;;;;;;-2.45;86.46;102216.88;5044973;28;20059;-62
2022/03/05 07:17:10;;;;;;;50.55;18.40;;;;;;;-2.39;86.20;102209.38;5043643;28;20037;-59
2022/03/05 07:19:35;;;;;;;58.83;19.27;;;;;;;-2.31;85.99;102222.63;5044176;28;20425;-59
2022/03/05 07:22:00;;;;;;;47.70;19.75;;;;;;;-2.22;85.66;102224.69;5044214;28;20021;-61
2022/03/05 07:24:26;;;;;;;57.70;19.20;;;;;;;-2.13;85.38;102219.94;5049331;28;20043;-62
2022/03/05 07:26:51;;;;;;;53.03;18.13;;;;;;;-2.03;85.57;102228.91;5063886;28;20056;-61
2022/03/05 07:29:16;;;;;;;42.83;18.48;;;;;;;-1.97;84.90;102236.03;5037717;28;20695;-52
2022/03/05 07:31:42;;;;;;;58.15;21.52;;;;;;;-1.93;84.62;102228.47;5033511;28;20048;-60
2022/03/05 07:34:07;;;;;;;42.03;16.90;;;;;;;-1.87;84.54;102227.84;5042847;28;20494;-64
2022/03/05 07:36:32;;;;;;;53.80;19.38;;;;;;;-1.80;84.23;102229.84;5035648;28;20402;-60
2022/03/05 07:38:58;;;;;;;53.95;19.08;;;;;;;-1.67;84.07;102232.91;5034550;28;20386;-60
2022/03/05 07:41:23;;;;;;;49.15;18.83;;;;;;;-1.59;83.77;102234.13;5043752;28;20063;-58
2022/03/05 07:43:48;;;;;;;54.70;20.15;;;;;;;-1.58;83.30;102228.13;5044853;28;20110;-57
2022/03/05 07:46:14;;;;;;;51.25;19.88;;;;;;;-1.48;83.33;102234.50;5044736;28;20017;-58
2022/03/05 07:48:39;;;;;;;48.25;17.90;;;;;;;-1.42;83.51;102229.59;5044706;28;20040;-63
2022/03/05 07:51:04;;;;;;;51.80;19.33;;;;;;;-1.36;83.04;102228.94;5051651;28;20021;-56
2022/03/05 07:53:31;;;;;;;46.97;19.98;;;;;;;-1.31;82.47;102232.59;5065834;28;20399;-61
2022/03/05 07:55:57;;;;;;;46.50;18.55;;;;;;;-1.19;82.53;102228.69;5057323;28;20107;-60
2022/03/05 07:58:23;;;;;;;50.80;20.30;;;;;;;-1.07;81.77;102242.09;5046968;28;20021;-57
2022/03/05 08:00:48;;;;;;;51.17;20.42;;;;;;;-1.00;81.54;102239.75;5046078;28;20059;-58
2022/03/05 08:03:14;;;;;;;50.08;20.25;;;;;;;-0.97;81.41;102238.13;5047469;28;20045;-57
2022/03/05 08:05:41;;;;;;;48.08;19.25;;;;;;;-0.92;81.30;102246.97;5046070;28;20379;-58
2022/03/05 08:08:06;;;;;;;48.17;19.17;;;;;;;-0.87;81.05;102252.31;5041882;28;20029;-62
2022/03/05 08:10:32;;;;;;;55.92;19.67;;;;;;;-0.80;80.79;102241.34;5038439;28;20032;-60
2022/03/05 08:12:57;;;;;;;55.33;21.60;;;;;;;-0.80;80.66;102249.09;5040595;28;20427;-62
2022/03/05 08:15:22;;;;;;;54.50;22.00;;;;;;;-0.75;80.68;102243.22;5038470;28;20084;-60
2022/03/05 08:17:56;;;;;;;46.17;19.15;;;;;;;-0.59;80.38;102242.03;5040071;28;20061;-58
2022/03/05 08:20:23;;;;;;;50.13;19.55;;;;;;;-0.55;80.11;102247.38;5046743;28;20387;-63
2022/03/05 08:22:49;;;;;;;61.42;23.27;;;;;;;-0.41;79.55;102246.97;5042737;28;20044;-60
2022/03/05 08:25:14;;;;;;;52.75;22.23;;;;;;;-0.36;79.48;102252.31;5037088;28;20022;-57
2022/03/05 08:27:40;;;;;;;50.95;19.85;;;;;;;-0.34;79.63;102245.47;5044131;28;20045;-60
2022/03/05 08:30:06;;;;;;;52.60;19.65;;;;;;;-0.29;79.19;102256.88;5035903;28;20100;-60
2022/03/05 08:32:31;;;;;;;54.90;21.13;;;;;;;-0.20;78.88;102258.91;5037814;28;20110;-60
2022/03/05 08:34:56;;;;;;;52.50;20.33;;;;;;;-0.13;78.56;102268.66;5036792;28;20120;-61
2022/03/05 08:37:22;;;;;;;48.97;19.90;;;;;;;0.04;78.39;102270.91;5044245;28;20059;-59
2022/03/05 08:39:47;;;;;;;49.08;18.85;;;;;;;0.10;77.75;102276.31;5045083;28;20028;-61
2022/03/05 08:42:12;;;;;;;55.03;20.50;;;;;;;0.12;77.48;102270.34;5037314;28;20439;-58
2022/03/05 08:44:38;;;;;;;47.53;19.13;;;;;;;0.19;77.21;102271.44;5046549;28;20024;-64
2022/03/05 08:47:03;;;;;;;46.67;17.65;;;;;;;0.24;77.05;102269.84;5046178;28;20347;-59
2022/03/05 08:49:29;;;;;;;44.45;19.67;;;;;;;0.35;76.56;102264.13;5044655;28;20032;-60
2022/03/05 08:51:54;;;;;;;50.38;20.50;;;;;;;0.29;76.32;102267.41;5045903;28;20019;-58
2022/03/05 08:54:20;;;;;;;50.58;20.90;;;;;;;0.31;76.71;102262.28;5045725;28;20048;-58
2022/03/05 08:56:46;;;;;;;52.55;20.63;;;;;;;0.38;76.62;102256.44;5050292;28;20238;-63
2022/03/05 08:59:11;;;;;;;50.33;20.98;;;;;;;0.47;76.45;102255.84;5065362;28;20060;-59
2022/03/05 09:01:37;;;;;;;53.33;20.60;;;;;;;0.48;76.53;102260.22;5065503;28;20141;-59
2022/03/05 09:04:02;;;;;;;44.63;17.90;;;;;;;0.61;76.48;102257.16;5066236;28;20027;-56
2022/03/05 09:06:28;;;;;;;51.35;19.60;;;;;;;0.77;76.08;102256.75;5063919;28;20012;-58
2022/03/05 09:08:53;;;;;;;46.42;19.88;;;;;;;0.81;75.70;102261.22;5049732;28;20044;-58
2022/03/05 09:11:18;;;;;;;48.45;19.40;;;;;;;0.92;75.99;102261.50;5062723;28;20020;-59
2022/03/05 09:13:44;;;;;;;47.78;21.15;;;;;;;0.95;75.63;102266.78;5065278;28;20016;-59
2022/03/05 09:16:09;;;;;;;50.33;21.02;;;;;;;0.92;75.67;102262.41;5064570;28;20107;-59
2022/03/05 09:18:35;;;;;;;55.63;21.75;;;;;;;0.96;75.76;102259.03;5065320;28;20089;-59
2022/03/05 09:21:00;;;;;;;54.13;21.13;;;;;;;1.08;75.39;102268.03;5063425;28;20324;-57
2022/03/05 09:23:25;;;;;;;45.80;18.92;;;;;;;1.22;75.09;102266.72;5065178;28;20075;-58
2022/03/05 09:25:51;;;;;;;47.40;20.05;;;;;;;1.37;74.64;102274.06;5047930;28;20018;-58
2022/03/05 09:28:16;;;;;;;52.63;20.05;;;;;;;1.50;73.96;102264.88;5035437;28;20032;-60
2022/03/05 09:30:41;;;;;;;52.38;20.50;;;;;;;1.49;73.70;102267.44;5036020;28;20724;-62
2022/03/05 09:33:07;;;;;;;52.78;20.83;;;;;;;1.45;74.10;102268.19;5029308;28;20424;-62
2022/03/05 09:35:33;;;;;;;43.17;17.92;;;;;;;1.55;74.08;102267.59;5026348;28;20067;-62
2022/03/05 09:37:58;;;;;;;47.88;21.25;;;;;;;1.57;73.98;102275.44;5026932;28;20017;-62
2022/03/05 09:40:24;;;;;;;54.85;22.05;;;;;;;1.54;74.08;102264.94;5033087;28;20024;-62
2022/03/05 09:42:49;;;;;;;53.58;22.65;;;;;;;1.60;73.41;102268.56;5035873;28;20217;-61
2022/03/05 09:45:14;;;;;;;53.88;23.73;;;;;;;1.62;73.87;102264.31;5030335;28;20009;-61
2022/03/05 09:47:41;;;;;;;52.03;22.58;;;;;;;1.68;74.45;102268.78;5035144;28;20036;-61
2022/03/05 09:50:08;;;;;;;51.47;20.95;;;;;;;1.82;73.40;102269.16;5041161;28;20098;-62
2022/03/05 09:52:34;;;;;;;54.17;20.73;;;;;;;1.94;72.82;102272.91;5042786;28;20027;-61
2022/03/05 09:54:59;;;;;;;47.53;22.05;;;;;;;1.93;72.98;102272.03;5036897;28;20236;-61
2022/03/05 09:57:25;;;;;;;48.20;20.08;;;;;;;2.08;72.77;102270.66;5040518;28;20513;-61
2022/03/05 09:59:50;;;;;;;52.72;22.58;;;;;;;2.15;72.18;102275.16;5039130;28;20036;-60
2022/03/05 10:02:17;;;;;;;48.65;22.02;;;;;;;2.12;72.59;102268.19;5038995;28;20041;-61
2022/03/05 10:04:42;;;;;;;48.65;20.45;;;;;;;2.29;72.27;102266.81;5042863;28;20017;-61
2022/03/05 10:07:15;;;;;;;45.80;20.45;;;;;;;2.44;72.03;102263.69;5042100;28;20161;-60
2022/03/05 10:09:43;;;;;;;55.75;23.15;;;;;;;2.50;71.53;102264.69;5042704;28;20017;-60
2022/03/05 10:12:30;;;;;;;50.17;20.67;;;;;;;2.67;71.17;102266.81;5042808;28;20395;-61
2022/03/05 10:15:06;;;;;;;56.40;21.27;;;;;;;2.56;70.25;102263.09;5042640;28;20056;-63
2022/03/05 10:17:48;;;;;;;53.55;22.13;;;;;;;2.68;70.78;102265.09;5033161;28;20044;-60
2022/03/05 10:20:13;;;;;;;44.97;20.13;;;;;;;2.86;70.46;102264.63;5042227;28;20083;-61
2022/03/05 10:22:39;;;;;;;52.35;21.40;;;;;;;2.87;69.54;102263.75;5041474;28;20483;-61
2022/03/05 10:25:05;;;;;;;54.42;22.10;;;;;;;2.74;70.02;102270.44;5043249;28;20210;-60
2022/03/05 10:27:30;;;;;;;45.78;19.83;;;;;;;2.97;69.39;102267.44;5042730;28;20025;-60
2022/03/05 10:29:56;;;;;;;55.88;21.02;;;;;;;3.07;69.48;102276.34;5039102;28;20097;-60
2022/03/05 10:32:22;;;;;;;50.08;21.17;;;;;;;3.16;69.00;102266.06;5032582;28;20072;-61
2022/03/05 10:34:50;;;;;;;51.15;22.50;;;;;;;3.22;69.42;102266.19;5034198;28;20017;-61
2022/03/05 10:37:20;;;;;;;52.03;21.00;;;;;;;3.33;69.35;102255.13;5037370;28;20040;-61
2022/03/05 10:39:49;;;;;;;45.90;20.90;;;;;;;3.54;69.22;102258.16;5041986;28;20104;-61
2022/03/05 10:42:19;;;;;;;47.17;20.33;;;;;;;3.69;68.23;102254.06;5031687;28;20026;-61
2022/03/05 10:45:04;;;;;;;45.90;19.75;;;;;;;3.88;67.57;102256.97;5037354;28;20475;-60
2022/03/05 10:47:39;;;;;;;47.35;20.23;;;;;;;3.79;67.02;102253.34;5032434;28;20063;-60
2022/03/05 10:50:21;;;;;;;47.10;20.50;;;;;;;3.98;65.81;102258.00;5037134;28;20365;-59
2022/03/05 10:52:49;;;;;;;56.33;21.70;;;;;;;3.97;66.08;102257.13;5033341;28;20033;-58
2022/03/05 10:55:16;;;;;;;57.92;22.48;;;;;;;3.97;66.48;102257.13;5050827;28;20430;-60
2022/03/05 10:57:58;;;;;;;46.17;20.40;;;;;;;4.12;67.03;102253.88;5039292;28;20055;-60
2022/03/05 11:00:23;;;;;;;41.78;18.75;;;;;;;4.30;65.81;102255.03;5046282;28;20467;-61
2022/03/05 11:02:49;;;;;;;47.80;21.65;;;;;;;4.09;65.38;102247.75;5050621;28;20033;-61
2022/03/05 11:05:17;;;;;;;49.67;22.23;;;;;;;4.09;65.39;102252.97;5046620;28;20044;-61
2022/03/05 11:07:42;;;;;;;53.53;21.67;;;;;;;4.36;64.02;102251.66;5040520;28;20052;-61
2022/03/05 11:10:08;;;;;;;50.13;20.90;;;;;;;4.59;64.13;102245.88;5044459;28;20823;-59